Time;durP1;ratioP1;P1;durP2;ratioP2;P2;SDS_P1;SDS_P2;PMS_P1;PMS_P2;Temp;Humidity;BMP_temperature;BMP_pressure;BME280_temperature;BME280_humidity;BME280_pressure;Samples;Min_cycle;Max_cycle;Signal;HPM_P1;HPM_P2
2021/10/11 00:02:16;;;;;;;27.73;14.28;;;;;;;7.75;58.04;144164.53;1834109;77;22188;-63
2021/10/11 00:04:51;;;;;;;25.65;13.70;;;;;;;7.74;58.06;144162.06;1853530;77;22163;-64
2021/10/11 00:07:26;;;;;;;25.20;13.50;;;;;;;7.76;57.92;144167.06;1853582;77;22570;-65
2021/10/11 00:10:26;;;;;;;22.30;14.50;;;;;;;7.78;57.99;144170.80;1848084;77;22602;-62
2021/10/11 00:13:01;;;;;;;25.77;14.28;;;;;;;7.78;57.96;144172.03;1835011;77;22136;-64
2021/10/11 00:15:54;;;;;;;25.40;14.60;;;;;;;7.79;57.94;144174.56;1835015;77;22271;-61
2021/10/11 00:18:29;;;;;;;25.77;13.85;;;;;;;7.78;57.96;144170.80;1853517;77;22131;-65
2021/10/11 00:21:23;;;;;;;24.55;14.40;;;;;;;7.77;57.94;144169.55;1834904;77;22185;-62
2021/10/11 00:23:58;;;;;;;22.55;12.70;;;;;;;7.76;58.01;144167.06;1834988;77;22551;-65
2021/10/11 00:26:33;;;;;;;27.42;14.65;;;;;;;7.76;57.89;144167.06;1853667;77;22136;-63
2021/10/11 00:29:07;;;;;;;23.12;14.60;;;;;;;7.73;58.12;144158.28;1834938;77;22555;-64
2021/10/11 00:32:03;;;;;;;28.70;14.68;;;;;;;7.70;58.17;144152.03;1853472;77;22152;-60
2021/10/11 00:34:39;;;;;;;30.50;14.47;;;;;;;7.67;58.43;144143.28;1853529;77;22574;-64
2021/10/11 00:37:14;;;;;;;23.85;14.25;;;;;;;7.61;58.37;144130.78;1834875;77;22132;-63
2021/10/11 00:40:10;;;;;;;27.70;14.75;;;;;;;7.56;58.64;144118.27;1834988;77;22550;-61
2021/10/11 00:42:45;;;;;;;23.45;14.45;;;;;;;7.55;58.55;144115.73;1848166;77;22136;-65
2021/10/11 00:45:20;;;;;;;30.57;16.42;;;;;;;7.54;58.64;144112.00;1835001;77;22161;-63
2021/10/11 00:48:02;;;;;;;32.08;16.02;;;;;;;7.51;58.75;144105.75;1834115;77;22177;-63
2021/10/11 00:50:57;;;;;;;29.25;15.55;;;;;;;7.50;58.97;144103.22;1853479;77;22131;-64
2021/10/11 00:53:33;;;;;;;31.75;16.25;;;;;;;7.47;58.91;144094.48;1853507;77;22582;-63
2021/10/11 00:56:08;;;;;;;31.77;18.32;;;;;;;7.45;58.98;144089.47;1819433;77;28417;-64
2021/10/11 00:58:43;;;;;;;31.40;17.05;;;;;;;7.49;59.07;144100.75;1853499;77;22164;-60
2021/10/11 01:01:18;;;;;;;33.92;17.42;;;;;;;7.45;59.26;144089.47;1834960;77;22157;-62
2021/10/11 01:04:13;;;;;;;32.45;16.23;;;;;;;7.39;59.50;144075.72;1853434;77;22135;-62
2021/10/11 01:06:49;;;;;;;31.07;16.77;;;;;;;7.35;59.51;144066.98;1834939;77;22159;-62
2021/10/11 01:09:24;;;;;;;29.48;16.23;;;;;;;7.36;59.54;144068.22;1834995;77;22607;-62
2021/10/11 01:12:18;;;;;;;32.55;16.93;;;;;;;7.34;59.51;144063.22;1834955;77;22562;-67
2021/10/11 01:15:11;;;;;;;30.95;15.40;;;;;;;7.33;59.62;144060.73;1834940;77;22136;-65
2021/10/11 01:17:52;;;;;;;33.08;14.93;;;;;;;7.31;59.66;144055.72;1834139;77;22157;-61
2021/10/11 01:20:28;;;;;;;28.38;15.72;;;;;;;7.29;59.69;144050.70;1834896;77;22133;-66
2021/10/11 01:23:25;;;;;;;30.10;15.78;;;;;;;7.29;59.40;144050.70;1853641;77;22155;-64
2021/10/11 01:26:20;;;;;;;27.73;16.25;;;;;;;7.30;59.32;144053.19;1837727;77;28008;-62
2021/10/11 01:28:55;;;;;;;27.70;15.78;;;;;;;7.36;59.37;144068.22;1853511;77;22200;-62
2021/10/11 01:31:50;;;;;;;27.22;14.90;;;;;;;7.35;59.18;144066.98;1834890;77;22571;-60
2021/10/11 01:34:43;;;;;;;26.27;15.40;;;;;;;7.36;59.15;144068.22;1834943;77;22140;-63
2021/10/11 01:37:44;;;;;;;29.00;16.52;;;;;;;7.35;58.97;144066.98;1853444;77;22615;-61
2021/10/11 01:40:39;;;;;;;28.95;16.57;;;;;;;7.34;59.08;144063.22;1834899;77;22140;-65
2021/10/11 01:43:14;;;;;;;29.05;16.45;;;;;;;7.33;59.06;144060.73;1834883;77;22562;-59
2021/10/11 01:45:51;;;;;;;32.35;16.17;;;;;;;7.31;58.90;144056.95;1834854;77;22160;-64
2021/10/11 01:48:45;;;;;;;25.62;15.18;;;;;;;7.34;58.92;144064.45;1834971;77;22555;-63
2021/10/11 01:51:22;;;;;;;29.15;15.93;;;;;;;7.33;58.70;144060.73;1834962;77;22578;-63
2021/10/11 01:54:16;;;;;;;28.80;15.40;;;;;;;7.35;58.62;144065.69;1834913;77;22132;-63
2021/10/11 01:56:57;;;;;;;28.32;15.03;;;;;;;7.32;58.74;144058.20;1853477;77;22625;-62
2021/10/11 01:59:50;;;;;;;42.80;16.82;;;;;;;7.31;58.74;144055.72;1834945;77;22563;-62
2021/10/11 02:02:51;;;;;;;30.95;15.90;;;;;;;7.27;58.79;144045.69;1853483;77;22179;-62
2021/10/11 02:05:25;;;;;;;25.82;15.08;;;;;;;7.24;58.90;144038.19;1853501;77;22136;-63
2021/10/11 02:08:20;;;;;;;30.45;15.43;;;;;;;7.22;58.96;144033.19;1834922;77;22140;-60
2021/10/11 02:10:55;;;;;;;26.70;16.25;;;;;;;7.18;59.22;144025.69;1834945;77;22156;-60
2021/10/11 02:13:51;;;;;;;26.48;16.23;;;;;;;7.17;59.19;144023.20;1819275;77;38620;-61
2021/10/11 02:16:26;;;;;;;26.77;15.43;;;;;;;7.20;58.84;144028.17;1834988;77;22133;-62
2021/10/11 02:19:01;;;;;;;25.82;15.18;;;;;;;7.20;58.82;144028.17;1834947;77;22132;-64
2021/10/11 02:21:36;;;;;;;31.40;16.57;;;;;;;7.21;58.76;144030.70;1834985;77;22128;-65
2021/10/11 02:24:11;;;;;;;30.15;15.45;;;;;;;7.21;58.66;144030.70;1835044;77;22128;-65
2021/10/11 02:26:45;;;;;;;33.67;18.00;;;;;;;7.20;58.53;144028.17;1853618;77;22124;-62
2021/10/11 02:29:39;;;;;;;28.38;15.60;;;;;;;7.22;58.76;144033.19;1834962;77;22148;-65
2021/10/11 02:32:14;;;;;;;32.50;16.02;;;;;;;7.13;58.86;144013.19;1853389;77;22183;-65
2021/10/11 02:35:09;;;;;;;30.30;15.68;;;;;;;7.08;58.93;143999.44;1834930;77;22136;-62
2021/10/11 02:37:50;;;;;;;32.08;16.52;;;;;;;7.04;59.13;143990.66;1834207;77;22197;-64
2021/10/11 02:40:43;;;;;;;30.37;16.15;;;;;;;6.98;59.58;143974.42;1834933;77;22136;-64
2021/10/11 02:43:18;;;;;;;33.98;16.27;;;;;;;6.92;59.68;143960.63;1835017;77;22165;-61
2021/10/11 02:46:18;;;;;;;28.90;16.00;;;;;;;6.85;60.17;143944.41;1834206;77;22176;-62
2021/10/11 02:48:53;;;;;;;28.32;16.10;;;;;;;6.79;60.71;143929.37;1834974;77;22132;-61
2021/10/11 02:51:27;;;;;;;34.40;16.80;;;;;;;6.74;60.79;143918.16;1843382;77;22131;-61
2021/10/11 02:54:02;;;;;;;34.48;16.32;;;;;;;6.72;60.85;143913.16;1853539;77;22159;-60
2021/10/11 02:56:56;;;;;;;37.23;18.00;;;;;;;6.68;61.13;143903.13;1853404;77;22192;-61
2021/10/11 02:59:31;;;;;;;35.55;19.52;;;;;;;6.61;61.58;143884.38;1837737;77;27967;-61
2021/10/11 03:02:24;;;;;;;41.02;18.52;;;;;;;6.61;62.04;143885.61;1834873;77;22160;-62
2021/10/11 03:05:06;;;;;;;67.67;23.42;;;;;;;6.53;62.25;143865.63;1834165;77;22598;-61
2021/10/11 03:07:42;;;;;;;115.15;32.93;;;;;;;6.48;62.64;143854.36;1853505;77;22132;-58
2021/10/11 03:10:35;;;;;;;172.40;40.25;;;;;;;6.42;63.17;143838.14;1834918;77;22163;-66
2021/10/11 03:13:10;;;;;;;188.85;44.50;;;;;;;6.36;63.80;143823.11;1834945;77;22193;-58
2021/10/11 03:16:05;;;;;;;156.80;37.80;;;;;;;6.29;63.96;143808.14;1834859;77;22157;-61
2021/10/11 03:18:40;;;;;;;163.70;37.67;;;;;;;6.25;64.37;143798.13;1843397;77;22131;-62
2021/10/11 03:21:18;;;;;;;133.30;36.70;;;;;;;6.23;64.79;143791.88;1835106;77;22148;-63
2021/10/11 03:23:52;;;;;;;120.55;32.80;;;;;;;6.17;65.12;143778.13;1853506;77;22163;-63
2021/10/11 03:26:27;;;;;;;123.35;32.48;;;;;;;6.08;65.36;143756.91;1834969;77;20096;-63
2021/10/11 03:29:02;;;;;;;108.87;31.75;;;;;;;6.05;65.71;143748.14;1834872;77;22132;-64
2021/10/11 03:31:56;;;;;;;94.58;29.70;;;;;;;5.98;66.04;143730.63;1853474;77;22144;-67
2021/10/11 03:34:56;;;;;;;83.17;28.95;;;;;;;5.87;66.54;143704.36;1834014;77;22141;-64
2021/10/11 03:37:31;;;;;;;82.15;28.25;;;;;;;5.80;66.91;143688.16;1834843;77;22157;-68
2021/10/11 03:40:12;;;;;;;83.15;28.20;;;;;;;5.75;67.11;143675.66;1834217;77;22316;-65
2021/10/11 03:43:06;;;;;;;77.00;26.95;;;;;;;5.74;67.32;143673.13;1834978;77;22210;-66
2021/10/11 03:45:46;;;;;;;89.95;26.85;;;;;;;5.72;67.31;143666.88;1834143;77;22191;-62
2021/10/11 03:48:23;;;;;;;74.20;26.62;;;;;;;5.71;67.47;143664.41;1833791;77;22136;-63
2021/10/11 03:51:23;;;;;;;73.30;25.48;;;;;;;5.69;67.61;143660.64;1807102;77;22670;-65
2021/10/11 03:53:58;;;;;;;65.72;25.23;;;;;;;5.68;67.65;143658.16;1824975;77;22554;-63
2021/10/11 03:56:33;;;;;;;64.07;25.10;;;;;;;5.67;67.70;143655.63;1816324;77;22595;-63
2021/10/11 03:59:08;;;;;;;69.30;28.73;;;;;;;5.67;67.66;143655.63;1801788;77;28173;-63
2021/10/11 04:01:43;;;;;;;66.47;25.08;;;;;;;5.71;67.69;143665.64;1824111;77;22164;-62
2021/10/11 04:04:21;;;;;;;56.80;25.00;;;;;;;5.70;67.69;143661.87;1837722;77;28006;-63
2021/10/11 04:07:01;;;;;;;57.67;24.20;;;;;;;5.77;67.45;143679.38;1824647;77;22168;-65
2021/10/11 04:09:32;;;;;;;57.45;23.27;;;;;;;5.81;67.30;143690.62;1834954;77;22136;-63
2021/10/11 04:12:18;;;;;;;51.33;21.95;;;;;;;5.83;67.14;143694.39;1838747;77;22152;-65
2021/10/11 04:14:48;;;;;;;43.58;20.57;;;;;;;5.86;66.86;143703.13;1812225;77;22170;-64
2021/10/11 04:17:23;;;;;;;48.10;22.30;;;;;;;5.88;66.45;143708.13;1843317;77;22653;-62
2021/10/11 04:20:17;;;;;;;46.02;22.70;;;;;;;5.89;66.65;143709.37;1834855;77;22560;-62
2021/10/11 04:23:11;;;;;;;48.08;21.40;;;;;;;5.87;66.96;143704.36;1853443;77;22176;-62
2021/10/11 04:25:46;;;;;;;47.08;22.45;;;;;;;5.83;67.01;143695.63;1835018;77;22543;-59
2021/10/11 04:28:46;;;;;;;48.63;21.15;;;;;;;5.83;67.25;143694.39;1834042;77;22184;-61
2021/10/11 04:31:20;;;;;;;51.55;23.40;;;;;;;5.81;67.37;143689.37;1853448;77;22136;-62
2021/10/11 04:33:55;;;;;;;59.18;23.30;;;;;;;5.78;67.67;143681.91;1834942;77;22215;-63
2021/10/11 04:36:30;;;;;;;48.65;23.02;;;;;;;5.81;68.00;143689.37;1853511;77;22566;-62
2021/10/11 04:39:05;;;;;;;46.48;22.77;;;;;;;6.24;67.73;143794.41;1834976;77;22137;-64
2021/10/11 04:41:59;;;;;;;52.30;22.70;;;;;;;6.96;66.42;143970.66;1834433;77;22172;-62
2021/10/11 04:44:40;;;;;;;50.88;23.00;;;;;;;7.68;63.97;144145.77;1820220;77;22207;-63
2021/10/11 04:47:15;;;;;;;50.73;22.67;;;;;;;8.38;62.15;144317.27;1818081;77;22200;-64
2021/10/11 04:49:50;;;;;;;43.45;21.37;;;;;;;9.05;60.46;144481.34;1816796;77;22582;-62
2021/10/11 04:52:45;;;;;;;42.35;21.30;;;;;;;9.73;57.81;144648.02;1826820;77;22627;-64
2021/10/11 04:55:27;;;;;;;40.12;21.37;;;;;;;10.36;55.77;144802.28;1820013;77;22176;-62
2021/10/11 04:58:22;;;;;;;48.28;19.90;;;;;;;11.12;53.09;144989.19;1823742;77;22183;-63
2021/10/11 05:00:58;;;;;;;48.87;20.10;;;;;;;11.66;51.00;145120.97;1804136;77;22199;-62
2021/10/11 05:03:57;;;;;;;48.28;20.37;;;;;;;12.24;49.10;145264.16;1853018;77;22547;-65
2021/10/11 05:06:52;;;;;;;43.15;20.48;;;;;;;12.89;47.42;145423.67;1834813;77;22204;-68
2021/10/11 05:09:27;;;;;;;43.23;20.37;;;;;;;13.50;46.04;145572.03;1834804;77;22164;-63
2021/10/11 05:12:03;;;;;;;41.42;20.52;;;;;;;14.10;44.62;145720.42;1838411;77;22171;-65
2021/10/11 05:14:58;;;;;;;41.15;21.12;;;;;;;14.76;43.08;145882.77;1834768;77;22128;-67
2021/10/11 05:17:52;;;;;;;41.65;21.07;;;;;;;15.27;41.94;146007.37;1834863;77;22136;-62
2021/10/11 05:20:34;;;;;;;38.48;21.50;;;;;;;15.91;40.32;146164.81;1853455;77;22175;-65
2021/10/11 05:23:10;;;;;;;38.83;21.17;;;;;;;16.42;38.38;146290.77;1834777;77;22163;-64
2021/10/11 05:25:45;;;;;;;34.03;20.80;;;;;;;16.38;38.80;146280.67;1853428;77;22159;-62
2021/10/11 05:28:39;;;;;;;42.95;20.25;;;;;;;16.71;37.85;146363.88;1853441;77;22159;-66
2021/10/11 05:31:39;;;;;;;36.53;20.27;;;;;;;17.29;37.75;146505.06;1834041;77;22292;-68
2021/10/11 05:34:33;;;;;;;34.33;19.95;;;;;;;17.56;35.93;146573.16;1853385;77;22218;-67
2021/10/11 05:37:08;;;;;;;38.08;20.23;;;;;;;17.17;36.24;146474.80;1837707;77;28463;-63
2021/10/11 05:40:03;;;;;;;34.33;20.00;;;;;;;16.14;37.25;146222.73;1853505;77;22135;-61
2021/10/11 05:42:38;;;;;;;38.08;21.50;;;;;;;16.19;37.66;146234.08;1834913;77;22203;-62
2021/10/11 05:45:14;;;;;;;40.70;21.95;;;;;;;16.09;37.72;146210.14;1834760;77;22175;-67
2021/10/11 05:47:48;;;;;;;42.93;22.42;;;;;;;15.77;38.09;146130.78;1853401;77;22596;-68
2021/10/11 05:50:23;;;;;;;44.27;22.77;;;;;;;15.88;38.11;146157.25;1843323;77;22179;-66
2021/10/11 05:53:19;;;;;;;47.70;23.57;;;;;;;15.91;38.36;146164.81;1853478;77;22267;-65
2021/10/11 05:55:55;;;;;;;43.95;22.75;;;;;;;16.78;37.97;146379.02;1843240;78;22601;-66
2021/10/11 05:58:31;;;;;;;45.75;24.63;;;;;;;18.04;36.13;146690.52;1842488;77;22611;-63
2021/10/11 06:01:26;;;;;;;39.50;22.87;;;;;;;18.82;34.67;146883.58;1820787;77;22276;-60
2021/10/11 06:04:03;;;;;;;44.03;24.18;;;;;;;19.14;33.99;146961.88;1821865;77;22209;-60
2021/10/11 06:07:04;;;;;;;39.55;22.65;;;;;;;20.26;32.83;147237.25;1829828;77;22208;-60
2021/10/11 06:10:05;;;;;;;40.38;22.40;;;;;;;21.19;30.65;147467.28;1833987;77;22201;-59
2021/10/11 06:12:59;;;;;;;48.05;25.00;;;;;;;20.67;30.92;147338.38;1819204;77;28027;-62
2021/10/11 06:15:38;;;;;;;45.88;23.65;;;;;;;20.70;30.78;147347.20;1834819;77;22138;-58
2021/10/11 06:18:14;;;;;;;44.83;24.35;;;;;;;20.80;31.11;147372.48;1819333;77;28462;-61
2021/10/11 06:21:08;;;;;;;42.48;23.40;;;;;;;22.15;30.00;147703.84;1834874;77;22634;-67
2021/10/11 06:24:04;;;;;;;42.70;22.52;;;;;;;23.80;28.08;148112.86;1835045;77;22145;-68
2021/10/11 06:26:58;;;;;;;35.88;21.62;;;;;;;25.50;25.79;148533.69;1853370;77;22159;-65
2021/10/11 06:29:33;;;;;;;43.13;23.95;;;;;;;26.50;24.07;148782.31;1819316;77;28044;-66
2021/10/11 06:32:08;;;;;;;41.37;20.90;;;;;;;26.90;24.01;148881.36;1834849;77;22138;-65
2021/10/11 06:34:43;;;;;;;37.78;20.35;;;;;;;26.66;22.83;148820.42;1834839;77;22718;-66
2021/10/11 06:37:18;;;;;;;37.93;21.85;;;;;;;25.60;24.25;148557.78;1835023;77;22603;-63
2021/10/11 06:39:52;;;;;;;42.53;22.17;;;;;;;25.55;23.76;148546.37;1853405;77;22212;-63
2021/10/11 06:42:28;;;;;;;35.52;20.62;;;;;;;25.33;24.82;148493.09;1853503;77;22157;-65
2021/10/11 06:45:26;;;;;;;29.40;18.95;;;;;;;26.28;23.61;148726.48;1853439;77;22186;-62
2021/10/11 06:48:24;;;;;;;32.70;20.92;;;;;;;26.04;22.79;148668.16;1848521;78;22195;-65
2021/10/11 06:51:19;;;;;;;36.60;20.68;;;;;;;25.36;23.86;148498.17;1853455;77;22243;-65
2021/10/11 06:53:56;;;;;;;33.05;19.48;;;;;;;25.44;23.44;148518.44;1834817;77;22097;-64
2021/10/11 06:56:30;;;;;;;34.70;21.70;;;;;;;24.58;24.07;148305.48;1835004;77;22318;-68
2021/10/11 06:59:07;;;;;;;35.43;20.65;;;;;;;23.44;25.47;148024.17;1853539;77;22190;-66
2021/10/11 07:01:43;;;;;;;41.23;22.82;;;;;;;23.43;25.81;148021.61;1834754;77;22254;-61
2021/10/11 07:04:38;;;;;;;41.63;22.77;;;;;;;23.70;25.01;148087.48;1830416;77;22372;-64
2021/10/11 07:07:14;;;;;;;38.60;23.22;;;;;;;23.16;25.88;147955.78;1804948;77;28451;-67
2021/10/11 07:09:50;;;;;;;33.38;21.65;;;;;;;;;;1834699;77;22207;-63
2021/10/11 07:12:25;;;;;;;33.78;20.50;;;;;;;23.39;26.36;148011.50;1834775;77;22654;-67
2021/10/11 07:15:03;;;;;;;26.87;17.57;;;;;;;24.27;25.25;148229.38;1841466;77;22215;-70
2021/10/11 07:17:59;;;;;;;24.82;15.72;;;;;;;24.34;25.31;148245.86;1822787;77;22214;-67
2021/10/11 07:20:53;;;;;;;35.70;17.70;;;;;;;25.10;24.01;148436.00;1818881;77;22073;-55
2021/10/11 07:23:29;;;;;;;22.75;15.60;;;;;;;24.23;24.99;148220.53;1853457;77;22092;-56
2021/10/11 07:26:07;;;;;;;27.67;15.58;;;;;;;23.11;25.58;147943.13;1834838;77;22149;-57
2021/10/11 07:29:08;;;;;;;29.72;17.82;;;;;;;22.24;26.43;147727.94;1853548;77;22169;-58
2021/10/11 07:31:45;;;;;;;26.30;17.05;;;;;;;22.60;26.83;147815.27;1853483;77;22076;-56
2021/10/11 07:34:38;;;;;;;28.90;17.05;;;;;;;24.19;25.67;148209.11;1853414;77;22238;-55
2021/10/11 07:37:13;;;;;;;26.85;16.62;;;;;;;25.55;24.32;148547.63;1853458;77;22728;-49
2021/10/11 07:39:49;;;;;;;31.73;18.10;;;;;;;26.61;23.15;148810.31;1842988;77;22124;-64
2021/10/11 07:42:30;;;;;;;25.75;17.70;;;;;;;26.71;22.25;148833.11;1812670;77;22321;-71
2021/10/11 07:45:08;;;;;;;31.15;18.95;;;;;;;26.20;22.60;148708.77;1843372;78;22069;-70
2021/10/11 07:48:02;;;;;;;34.38;19.80;;;;;;;26.17;22.87;148701.12;1834817;77;22255;-66
2021/10/11 07:50:39;;;;;;;24.75;14.83;;;;;;;25.64;23.18;148569.16;1834612;77;22101;-64
2021/10/11 07:53:13;;;;;;;24.98;15.78;;;;;;;25.73;22.79;148592.00;1834961;77;22540;-66
2021/10/11 07:55:48;;;;;;;29.20;14.15;;;;;;;26.08;22.60;148677.00;1834938;77;22333;-70
2021/10/11 07:58:25;;;;;;;18.10;12.80;;;;;;;25.78;22.28;148604.69;1830673;77;22286;-68
2021/10/11 08:01:05;;;;;;;23.55;13.40;;;;;;;24.94;22.84;148394.20;1826233;77;22721;-65
2021/10/11 08:03:40;;;;;;;25.00;14.33;;;;;;;24.12;23.91;148192.67;1832857;77;22117;-62
2021/10/11 08:06:16;;;;;;;25.88;15.30;;;;;;;24.16;24.24;148202.78;1804815;77;28519;-63
2021/10/11 08:08:51;;;;;;;22.62;15.23;;;;;;;25.09;23.65;148433.48;1813711;77;22375;-65
2021/10/11 08:11:33;;;;;;;24.82;15.45;;;;;;;24.79;23.46;148358.69;1825480;77;22220;-65
2021/10/11 08:14:08;;;;;;;25.08;14.73;;;;;;;23.65;24.70;148074.81;1841907;77;22065;-65
2021/10/11 08:17:02;;;;;;;22.67;14.70;;;;;;;23.61;24.88;148065.97;1815973;77;22270;-65
2021/10/11 08:19:37;;;;;;;19.25;13.75;;;;;;;23.70;24.78;148087.48;1808634;77;28195;-64
2021/10/11 08:22:12;;;;;;;22.55;14.18;;;;;;;23.65;24.66;148074.81;1818088;77;22330;-63
2021/10/11 08:24:51;;;;;;;23.98;14.68;;;;;;;23.04;25.42;147925.41;1853577;77;22503;-64
2021/10/11 08:27:25;;;;;;;24.67;15.93;;;;;;;22.42;26.22;147772.23;1828769;77;22294;-63
2021/10/11 08:30:00;;;;;;;25.32;16.67;;;;;;;22.32;26.51;147748.17;1818609;77;28590;-66
2021/10/11 08:32:57;;;;;;;25.50;15.18;;;;;;;22.08;26.71;147687.38;1815726;78;22132;-67
2021/10/11 08:35:33;;;;;;;26.97;16.82;;;;;;;21.56;27.62;147559.66;1819436;77;28604;-65
2021/10/11 08:38:27;;;;;;;27.37;15.43;;;;;;;20.76;28.43;147361.09;1823342;77;22206;-63
2021/10/11 08:41:07;;;;;;;30.90;16.40;;;;;;;20.27;29.16;147239.75;1820602;77;22164;-66
2021/10/11 08:43:44;;;;;;;21.77;15.43;;;;;;;19.78;30.00;147118.50;1824595;77;22199;-62
2021/10/11 08:46:18;;;;;;;26.75;15.48;;;;;;;19.15;30.77;146963.13;1815519;77;22618;-64
2021/10/11 08:49:15;;;;;;;31.33;16.20;;;;;;;18.54;31.67;146812.88;1834595;77;22176;-67
2021/10/11 08:51:49;;;;;;;28.20;18.42;;;;;;;17.98;32.67;146676.59;1807719;77;28138;-60
2021/10/11 08:54:24;;;;;;;32.50;15.55;;;;;;;17.87;33.03;146648.88;1834828;77;22550;-64
2021/10/11 08:57:06;;;;;;;24.23;14.25;;;;;;;17.73;33.11;146613.48;1834086;77;22181;-65
2021/10/11 09:00:18;;;;;;;23.07;14.87;;;;;;;17.18;33.83;146477.34;1853317;77;22210;-66
2021/10/11 09:02:58;;;;;;;34.48;16.90;;;;;;;16.74;34.91;146368.88;1834727;77;22187;-66
2021/10/11 09:06:06;;;;;;;29.37;13.85;;;;;;;16.27;35.77;146255.47;1834583;77;22160;-68
2021/10/11 09:08:55;;;;;;;24.95;14.60;;;;;;;15.88;35.99;146157.25;1834946;77;22136;-61
2021/10/11 09:11:49;;;;;;;35.00;15.53;;;;;;;15.44;36.86;146048.89;1827726;77;22629;-65
2021/10/11 09:14:48;;;;;;;26.85;15.00;;;;;;;15.08;36.75;145960.77;1809963;77;22208;-63
2021/10/11 09:17:45;;;;;;;21.73;13.53;;;;;;;14.60;37.75;145842.47;1837741;77;27994;-54
2021/10/11 09:20:45;;;;;;;39.85;15.80;;;;;;;13.96;39.15;145685.19;1853412;77;22639;-66
2021/10/11 09:23:44;;;;;;;35.95;15.95;;;;;;;13.99;39.30;145694.03;1853377;77;22156;-62
2021/10/11 09:26:21;;;;;;;41.02;16.90;;;;;;;14.00;39.45;145695.28;1834956;77;22160;-66
2021/10/11 09:29:36;;;;;;;37.75;16.12;;;;;;;13.99;39.62;145694.03;1834801;77;22136;-64
2021/10/11 09:32:17;;;;;;;35.60;16.17;;;;;;;14.02;39.72;145701.56;1853353;77;22191;-66
2021/10/11 09:35:17;;;;;;;43.00;18.00;;;;;;;14.04;39.48;145706.61;1834604;77;22264;-67
2021/10/11 09:37:52;;;;;;;39.48;16.42;;;;;;;14.03;39.59;145704.06;1834854;77;22153;-63
2021/10/11 09:40:29;;;;;;;36.10;16.00;;;;;;;13.99;39.46;145694.03;1834993;77;22137;-64
2021/10/11 09:43:27;;;;;;;31.62;15.53;;;;;;;13.86;39.81;145661.30;1846540;77;22641;-62
2021/10/11 09:46:12;;;;;;;34.65;15.93;;;;;;;13.78;39.82;145641.19;1834844;77;22669;-61
2021/10/11 09:49:04;;;;;;;40.60;15.15;;;;;;;13.73;39.92;145628.61;1834932;77;22136;-61
2021/10/11 09:51:59;;;;;;;26.70;14.18;;;;;;;13.70;39.76;145621.08;1853386;77;22164;-64
2021/10/11 09:54:59;;;;;;;30.08;15.43;;;;;;;13.82;39.71;145651.27;1853444;77;22145;-61
2021/10/11 09:58:00;;;;;;;36.30;15.65;;;;;;;13.89;39.64;145668.83;1853240;77;22610;-60
2021/10/11 10:00:43;;;;;;;38.73;16.87;;;;;;;13.92;39.59;145676.41;1834338;77;22192;-63
2021/10/11 10:03:25;;;;;;;32.40;15.93;;;;;;;13.87;39.66;145665.09;1853269;77;22164;-64
2021/10/11 10:06:19;;;;;;;48.50;20.32;;;;;;;13.89;40.12;145670.12;1835022;77;22136;-63
2021/10/11 10:09:04;;;;;;;31.90;16.42;;;;;;;14.00;39.92;145696.53;1834250;77;22205;-61
2021/10/11 10:12:02;;;;;;;44.20;19.27;;;;;;;14.16;40.12;145735.50;1853569;77;22136;-65
2021/10/11 10:15:02;;;;;;;38.45;18.60;;;;;;;14.33;39.64;145777.03;1834833;77;22188;-61
2021/10/11 10:18:10;;;;;;;33.80;16.70;;;;;;;14.54;39.58;145829.89;1834056;77;22611;-62
2021/10/11 10:21:07;;;;;;;39.38;17.80;;;;;;;14.72;39.43;145872.69;1853509;77;22349;-60
2021/10/11 10:23:56;;;;;;;33.05;16.65;;;;;;;14.67;39.40;145861.34;1853691;77;22218;-62
2021/10/11 10:27:08;;;;;;;27.90;13.13;;;;;;;14.69;39.57;145865.14;1853563;77;22167;-62
2021/10/11 10:29:49;;;;;;;21.55;10.58;;;;;;;14.81;39.21;145895.34;1843406;77;22132;-64
2021/10/11 10:33:06;;;;;;;18.42;12.23;;;;;;;14.64;39.15;145852.56;1833918;77;22183;-62
2021/10/11 10:35:51;;;;;;;25.08;12.73;;;;;;;14.52;39.30;145823.56;1836668;77;22189;-62
2021/10/11 10:39:03;;;;;;;22.02;12.25;;;;;;;14.44;39.87;145803.44;1821777;77;22594;-65
2021/10/11 10:41:56;;;;;;;20.12;11.50;;;;;;;14.46;39.97;145809.72;1834918;77;22157;-62
2021/10/11 10:44:47;;;;;;;23.07;12.47;;;;;;;14.48;40.20;145813.52;1834838;77;22161;-66
2021/10/11 10:47:41;;;;;;;27.05;12.50;;;;;;;14.39;40.51;145792.09;1834884;77;22562;-67
2021/10/11 10:50:41;;;;;;;22.35;11.28;;;;;;;14.44;40.50;145804.69;1834018;77;22272;-61
2021/10/11 10:53:19;;;;;;;23.52;13.25;;;;;;;14.43;40.42;145802.19;1843214;78;22191;-69
2021/10/11 10:55:54;;;;;;;19.05;11.73;;;;;;;14.40;40.36;145794.66;1853386;77;22160;-63
2021/10/11 10:58:36;;;;;;;24.50;12.93;;;;;;;14.48;40.37;145813.52;1853422;77;22221;-65
2021/10/11 11:01:36;;;;;;;20.52;11.70;;;;;;;14.57;40.62;145836.19;1853344;77;22208;-63
2021/10/11 11:04:30;;;;;;;24.32;12.33;;;;;;;14.68;40.61;145863.89;1853284;77;22135;-63
2021/10/11 11:07:31;;;;;;;22.80;12.53;;;;;;;14.64;40.02;145853.81;1834839;77;22156;-62
2021/10/11 11:10:15;;;;;;;18.85;11.33;;;;;;;14.68;40.63;145863.89;1835046;77;22129;-66
2021/10/11 11:13:16;;;;;;;19.02;11.88;;;;;;;14.86;39.79;145907.94;1847942;77;22143;-60
2021/10/11 11:16:10;;;;;;;16.62;10.82;;;;;;;14.85;39.88;145904.14;1853377;77;22139;-58
2021/10/11 11:18:51;;;;;;;27.07;12.47;;;;;;;14.81;39.63;145895.34;1837738;77;27995;-59
2021/10/11 11:21:32;;;;;;;19.77;11.63;;;;;;;14.91;39.60;145920.52;1834073;77;22626;-64
2021/10/11 11:24:26;;;;;;;23.42;11.88;;;;;;;15.06;39.32;145955.72;1834823;77;22136;-63
2021/10/11 11:27:32;;;;;;;20.17;10.43;;;;;;;15.01;39.36;145943.14;1834651;77;22175;-63
2021/10/11 11:30:14;;;;;;;18.10;11.12;;;;;;;15.19;39.08;145988.48;1834996;77;22596;-66
2021/10/11 11:32:57;;;;;;;22.30;11.10;;;;;;;15.43;38.56;146046.39;1834960;77;22148;-66
2021/10/11 11:35:58;;;;;;;19.85;9.88;;;;;;;15.50;38.68;146065.28;1833923;77;22602;-63
2021/10/11 11:38:38;;;;;;;19.60;9.75;;;;;;;15.71;38.73;146115.69;1834856;77;22136;-61
2021/10/11 11:41:19;;;;;;;17.77;10.08;;;;;;;15.75;37.58;146127.03;1818517;77;27983;-61
2021/10/11 11:43:57;;;;;;;18.75;10.53;;;;;;;15.65;37.65;146101.80;1834907;77;22137;-64
2021/10/11 11:47:11;;;;;;;17.27;9.50;;;;;;;15.52;38.13;146069.02;1853354;77;22200;-63
2021/10/11 11:49:48;;;;;;;16.23;10.05;;;;;;;15.52;38.32;146069.02;1837722;77;38288;-62
2021/10/11 11:53:01;;;;;;;19.67;9.88;;;;;;;15.49;37.87;146061.47;1853736;77;22218;-62
2021/10/11 11:55:58;;;;;;;18.67;9.33;;;;;;;15.66;37.88;146103.05;1834938;77;20207;-62
2021/10/11 11:58:52;;;;;;;15.00;8.00;;;;;;;15.87;37.57;146155.97;1853380;77;22131;-59
2021/10/11 12:01:30;;;;;;;12.93;7.78;;;;;;;15.74;37.18;146124.47;1853527;77;22183;-64
2021/10/11 12:04:24;;;;;;;13.32;7.25;;;;;;;15.49;37.63;146061.47;1853418;77;22159;-62
2021/10/11 12:07:21;;;;;;;15.95;7.30;;;;;;;15.39;37.65;146038.84;1853452;77;22163;-60
2021/10/11 12:10:01;;;;;;;16.02;7.67;;;;;;;15.29;38.16;146012.38;1834162;77;22188;-62
2021/10/11 12:12:42;;;;;;;15.13;7.25;;;;;;;15.26;38.23;146004.83;1834116;77;22188;-62
2021/10/11 12:15:21;;;;;;;11.35;6.42;;;;;;;15.23;38.45;145997.28;1834841;77;22582;-62
2021/10/11 12:18:12;;;;;;;8.88;5.42;;;;;;;15.28;37.84;146011.13;1834776;77;22136;-64
2021/10/11 12:21:36;;;;;;;13.98;6.20;;;;;;;15.52;37.45;146069.02;1853427;77;22235;-61
2021/10/11 12:24:18;;;;;;;13.25;6.62;;;;;;;15.51;37.75;146066.52;1853500;77;22124;-63
2021/10/11 12:27:14;;;;;;;15.80;6.83;;;;;;;15.63;37.37;146098.00;1853378;77;22143;-64
2021/10/11 12:29:49;;;;;;;15.78;7.25;;;;;;;15.64;37.37;146100.50;1853476;77;22135;-62
2021/10/11 12:32:43;;;;;;;12.85;6.92;;;;;;;15.67;37.53;146105.53;1834876;77;22559;-61
2021/10/11 12:35:38;;;;;;;15.70;7.00;;;;;;;15.80;37.70;146139.63;1853441;77;22249;-60
2021/10/11 12:38:16;;;;;;;18.87;6.83;;;;;;;15.92;37.07;146168.56;1853493;77;22127;-61